Time;durP1;ratioP1;P1;durP2;ratioP2;P2;SDS_P1;SDS_P2;PMS_P1;PMS_P2;Temp;Humidity;BMP_temperature;BMP_pressure;BME280_temperature;BME280_humidity;BME280_pressure;Samples;Min_cycle;Max_cycle;Signal;HPM_P1;HPM_P2
2024/01/12 00:00:12;;;;;;;10.50;4.28;;;;;;;;;;4983374;28;93056;-79
2024/01/12 00:02:39;;;;;;;9.45;3.95;;;;;;;;;;4982443;28;92223;-81
2024/01/12 00:05:07;;;;;;;9.70;4.32;;;;;;;;;;4982180;28;92711;-79
2024/01/12 00:07:33;;;;;;;11.48;4.25;;;;;;;;;;4981553;28;95670;-80
2024/01/12 00:10:00;;;;;;;10.25;4.40;;;;;;;;;;4965364;28;92149;-80
2024/01/12 00:12:26;;;;;;;8.93;3.78;;;;;;;;;;4997328;28;92595;-79
2024/01/12 00:14:53;;;;;;;8.93;3.80;;;;;;;;;;5002120;28;92620;-80
2024/01/12 00:17:20;;;;;;;9.57;4.30;;;;;;;;;;4966788;28;92104;-80
2024/01/12 00:19:46;;;;;;;10.30;4.40;;;;;;;;;;4983096;28;94602;-81
2024/01/12 00:22:13;;;;;;;12.35;4.03;;;;;;;;;;4984213;28;92122;-81
2024/01/12 00:24:40;;;;;;;9.35;3.90;;;;;;;;;;4981438;28;94976;-81
2024/01/12 00:27:06;;;;;;;8.75;4.00;;;;;;;;;;4981741;28;95016;-82
2024/01/12 00:29:33;;;;;;;7.72;3.40;;;;;;;;;;4982086;28;92079;-81
2024/01/12 00:31:59;;;;;;;10.15;3.75;;;;;;;;;;4982390;28;94944;-81
2024/01/12 00:34:26;;;;;;;10.98;3.92;;;;;;;;;;4964583;28;95261;-81
2024/01/12 00:36:53;;;;;;;9.45;3.63;;;;;;;;;;4983382;28;91408;-82
2024/01/12 00:39:20;;;;;;;9.25;3.55;;;;;;;;;;4976148;28;92928;-80
2024/01/12 00:41:47;;;;;;;9.70;3.50;;;;;;;;;;4985821;28;92767;-80
2024/01/12 00:44:14;;;;;;;8.35;3.42;;;;;;;;;;4963725;28;95086;-81
2024/01/12 00:46:44;;;;;;;9.02;3.60;;;;;;;;;;4981946;28;92647;-82
2024/01/12 00:49:11;;;;;;;8.55;3.75;;;;;;;;;;4981461;28;92395;-81
2024/01/12 00:51:38;;;;;;;8.18;2.90;;;;;;;;;;4982723;28;92482;-80
2024/01/12 00:54:04;;;;;;;9.52;3.33;;;;;;;;;;4983004;28;93654;-80
2024/01/12 00:56:31;;;;;;;8.93;3.22;;;;;;;;;;4980186;28;92315;-80
2024/01/12 00:58:57;;;;;;;9.07;3.28;;;;;;;;;;4981116;28;95429;-80
2024/01/12 01:01:24;;;;;;;8.13;3.30;;;;;;;;;;4983241;28;91981;-81
2024/01/12 01:03:50;;;;;;;7.68;3.00;;;;;;;;;;4984325;28;92399;-79
2024/01/12 01:06:17;;;;;;;8.48;2.90;;;;;;;;;;4979870;28;94830;-79
2024/01/12 01:08:45;;;;;;;9.48;3.22;;;;;;;;;;4979032;28;94625;-78
2024/01/12 01:11:12;;;;;;;7.50;3.05;;;;;;;;;;4983812;28;95192;-78
2024/01/12 01:13:39;;;;;;;7.45;3.00;;;;;;;;;;4980351;28;93672;-78
2024/01/12 01:16:05;;;;;;;7.60;2.97;;;;;;;;;;4980589;28;92308;-80
2024/01/12 01:18:32;;;;;;;8.88;2.70;;;;;;;;;;4979871;28;92675;-79
2024/01/12 01:21:03;;;;;;;8.93;2.70;;;;;;;;;;4980815;28;92731;-79
2024/01/12 01:23:29;;;;;;;9.07;2.90;;;;;;;;;;4983906;28;92027;-79
2024/01/12 01:25:56;;;;;;;7.57;3.17;;;;;;;;;;4981516;28;91984;-79
2024/01/12 01:28:23;;;;;;;8.30;3.05;;;;;;;;;;4981581;28;92570;-80
2024/01/12 01:30:50;;;;;;;8.50;3.05;;;;;;;;;;4980901;28;93850;-79
2024/01/12 01:33:16;;;;;;;8.98;2.90;;;;;;;;;;4979821;28;95702;-80
2024/01/12 01:35:43;;;;;;;7.78;2.90;;;;;;;;;;4980299;28;92329;-79
2024/01/12 01:38:10;;;;;;;8.75;2.88;;;;;;;;;;4980511;28;92055;-79
2024/01/12 01:40:36;;;;;;;8.90;2.85;;;;;;;;;;4980586;28;92942;-79
2024/01/12 01:43:06;;;;;;;9.52;2.83;;;;;;;;;;4982338;28;92596;-82
2024/01/12 01:45:35;;;;;;;8.63;3.00;;;;;;;;;;4983075;28;93369;-80
2024/01/12 01:48:05;;;;;;;11.68;2.88;;;;;;;;;;4963988;28;93503;-82
2024/01/12 01:50:32;;;;;;;7.95;2.83;;;;;;;;;;4979963;28;95186;-81
2024/01/12 01:52:59;;;;;;;9.25;2.50;;;;;;;;;;4980851;28;92528;-80
2024/01/12 01:55:27;;;;;;;8.80;2.75;;;;;;;;;;4981706;28;92473;-80
2024/01/12 01:57:55;;;;;;;7.85;2.53;;;;;;;;;;4979124;28;94914;-81
2024/01/12 02:00:21;;;;;;;;;;;;;;;;;;4980284;28;95453;-82
2024/01/12 02:02:48;;;;;;;6.63;2.40;;;;;;;;;;4984594;28;109801;-81
2024/01/12 02:05:15;;;;;;;8.55;2.65;;;;;;;;;;4962399;28;92485;-81
2024/01/12 02:07:42;;;;;;;9.70;2.55;;;;;;;;;;4965549;28;93105;-81
2024/01/12 02:10:09;;;;;;;7.35;2.20;;;;;;;;;;4980076;28;95338;-81
2024/01/12 02:12:39;;;;;;;9.82;2.50;;;;;;;;;;4995135;28;95413;-81
2024/01/12 02:15:08;;;;;;;7.55;2.35;;;;;;;;;;5000718;28;91611;-82
2024/01/12 02:17:36;;;;;;;9.82;2.60;;;;;;;;;;4983412;28;93514;-81
2024/01/12 02:20:03;;;;;;;6.95;2.13;;;;;;;;;;5001232;27;92606;-80
2024/01/12 02:22:30;;;;;;;8.43;2.38;;;;;;;;;;4991595;28;95372;-81
2024/01/12 02:24:57;;;;;;;6.43;2.10;;;;;;;;;;4980124;28;97249;-81
2024/01/12 02:27:24;;;;;;;8.93;2.60;;;;;;;;;;4980058;28;95343;-81
2024/01/12 02:29:53;;;;;;;9.75;2.30;;;;;;;;;;4985235;28;92149;-80
2024/01/12 02:32:20;;;;;;;9.20;2.35;;;;;;;;;;4963340;28;95314;-81
2024/01/12 02:34:46;;;;;;;6.35;1.92;;;;;;;;;;4977471;28;92230;-80
2024/01/12 02:37:13;;;;;;;8.70;2.20;;;;;;;;;;4974282;28;92254;-79
2024/01/12 02:39:40;;;;;;;8.55;2.15;;;;;;;;;;4980353;28;94404;-79
2024/01/12 02:42:06;;;;;;;8.27;2.25;;;;;;;;;;4982829;28;92163;-79
2024/01/12 02:44:33;;;;;;;7.07;2.10;;;;;;;;;;4983915;28;92478;-79
2024/01/12 02:46:59;;;;;;;7.30;2.28;;;;;;;;;;4981527;28;97150;-79
2024/01/12 02:49:26;;;;;;;8.02;2.30;;;;;;;;;;4983265;28;92672;-80
2024/01/12 02:51:52;;;;;;;6.97;2.20;;;;;;;;;;4985765;28;95360;-79
2024/01/12 02:54:19;;;;;;;7.25;2.08;;;;;;;;;;4966387;28;92140;-80
2024/01/12 02:56:45;;;;;;;8.95;2.40;;;;;;;;;;4983279;28;92364;-80
2024/01/12 02:59:12;;;;;;;8.10;2.10;;;;;;;;;;4969140;28;92875;-78
2024/01/12 03:01:39;;;;;;;8.75;2.40;;;;;;;;;;4964894;28;92148;-80
2024/01/12 03:04:05;;;;;;;8.38;1.80;;;;;;;;;;4966759;28;93633;-80
2024/01/12 03:06:32;;;;;;;10.02;2.30;;;;;;;;;;4981702;28;92970;-80
2024/01/12 03:08:58;;;;;;;7.28;2.10;;;;;;;;;;4984404;28;92338;-83
2024/01/12 03:11:25;;;;;;;8.57;2.00;;;;;;;;;;4989493;28;94626;-80
2024/01/12 03:13:52;;;;;;;8.20;2.10;;;;;;;;;;5005362;28;95407;-80
2024/01/12 03:16:19;;;;;;;9.27;1.90;;;;;;;;;;5003774;27;92430;-79
2024/01/12 03:18:49;;;;;;;6.68;1.75;;;;;;;;;;4997487;28;93233;-81
2024/01/12 03:21:17;;;;;;;7.50;2.10;;;;;;;;;;4984420;28;92017;-80
2024/01/12 03:23:43;;;;;;;7.00;1.80;;;;;;;;;;4984277;28;92845;-80
2024/01/12 03:26:10;;;;;;;7.53;2.03;;;;;;;;;;4984484;28;92748;-80
2024/01/12 03:28:36;;;;;;;10.20;2.33;;;;;;;;;;4983770;28;91730;-80
2024/01/12 03:31:03;;;;;;;8.07;1.92;;;;;;;;;;4982689;28;94544;-81
2024/01/12 03:33:30;;;;;;;8.98;1.90;;;;;;;;;;4986876;28;93529;-79
2024/01/12 03:35:57;;;;;;;9.27;2.00;;;;;;;;;;4967260;28;95368;-80
2024/01/12 03:38:24;;;;;;;7.72;1.85;;;;;;;;;;4970084;28;93315;-81
2024/01/12 03:40:51;;;;;;;10.27;1.80;;;;;;;;;;4984034;28;92497;-80
2024/01/12 03:43:17;;;;;;;5.40;1.67;;;;;;;;;;4982047;28;92208;-81
2024/01/12 03:45:44;;;;;;;11.65;2.17;;;;;;;;;;4981362;28;95079;-80
2024/01/12 03:48:11;;;;;;;8.82;1.75;;;;;;;;;;4983672;28;92162;-82
2024/01/12 03:50:37;;;;;;;9.57;1.90;;;;;;;;;;4982518;28;92569;-80
2024/01/12 03:53:04;;;;;;;12.13;2.15;;;;;;;;;;4983506;28;92202;-79
2024/01/12 03:55:31;;;;;;;6.88;1.80;;;;;;;;;;4986234;28;92247;-79
2024/01/12 03:57:57;;;;;;;8.25;1.77;;;;;;;;;;4981755;28;95180;-79
2024/01/12 04:00:24;;;;;;;7.30;1.77;;;;;;;;;;4963148;28;94973;-79
2024/01/12 04:02:50;;;;;;;7.50;1.80;;;;;;;;;;4983526;28;94699;-80
2024/01/12 04:05:17;;;;;;;6.75;1.58;;;;;;;;;;4983135;28;92685;-79
2024/01/12 04:07:43;;;;;;;9.07;2.08;;;;;;;;;;4984357;28;94072;-82
2024/01/12 04:10:10;;;;;;;9.77;2.10;;;;;;;;;;4966600;28;94540;-81
2024/01/12 04:12:37;;;;;;;11.35;2.15;;;;;;;;;;4997829;27;93294;-84
2024/01/12 04:15:05;;;;;;;8.48;1.98;;;;;;;;;;4997282;28;92156;-81
2024/01/12 04:17:31;;;;;;;8.40;1.77;;;;;;;;;;4987122;28;92561;-81
2024/01/12 04:19:58;;;;;;;9.32;1.70;;;;;;;;;;4982684;28;92124;-80
2024/01/12 04:22:25;;;;;;;8.93;1.85;;;;;;;;;;4981569;28;94370;-81
2024/01/12 04:24:51;;;;;;;9.30;1.80;;;;;;;;;;4981987;28;95589;-81
2024/01/12 04:27:17;;;;;;;6.07;1.50;;;;;;;;;;4981871;28;93608;-81
2024/01/12 04:29:44;;;;;;;6.40;1.77;;;;;;;;;;4983248;28;92153;-82
2024/01/12 04:32:11;;;;;;;7.78;1.70;;;;;;;;;;4983625;28;93233;-82
2024/01/12 04:34:38;;;;;;;7.53;1.88;;;;;;;;;;4982853;28;92261;-83
2024/01/12 04:37:05;;;;;;;6.97;1.70;;;;;;;;;;4979705;28;93043;-81
2024/01/12 04:39:32;;;;;;;8.88;1.60;;;;;;;;;;4981776;28;93541;-80
2024/01/12 04:41:59;;;;;;;9.23;1.75;;;;;;;;;;4984141;28;92425;-80
2024/01/12 04:44:25;;;;;;;7.03;1.42;;;;;;;;;;4980354;28;95195;-80
2024/01/12 04:46:52;;;;;;;8.40;1.60;;;;;;;;;;4980765;28;92245;-80
2024/01/12 04:49:18;;;;;;;7.32;1.70;;;;;;;;;;4980577;28;95334;-79
2024/01/12 04:51:45;;;;;;;5.22;1.40;;;;;;;;;;4983103;28;92857;-81
2024/01/12 04:54:11;;;;;;;6.30;1.42;;;;;;;;;;4981031;28;92271;-78
2024/01/12 04:56:38;;;;;;;6.60;1.85;;;;;;;;;;4980755;28;94316;-80
2024/01/12 04:59:05;;;;;;;5.10;1.58;;;;;;;;;;4982754;28;92640;-81
2024/01/12 05:01:31;;;;;;;6.88;1.65;;;;;;;;;;4985859;28;92482;-81
2024/01/12 05:03:58;;;;;;;8.30;1.80;;;;;;;;;;4982491;28;92295;-79
2024/01/12 05:06:24;;;;;;;7.97;1.45;;;;;;;;;;4979577;28;92047;-80
2024/01/12 05:08:51;;;;;;;5.03;1.30;;;;;;;;;;4982058;28;92379;-79
2024/01/12 05:11:18;;;;;;;7.65;1.63;;;;;;;;;;4987667;28;92679;-80
2024/01/12 05:13:45;;;;;;;5.75;1.75;;;;;;;;;;4990605;27;94703;-79
2024/01/12 05:16:12;;;;;;;5.68;1.20;;;;;;;;;;4981993;28;94752;-81
2024/01/12 05:18:38;;;;;;;6.78;1.73;;;;;;;;;;4981819;28;93470;-80
2024/01/12 05:21:05;;;;;;;4.43;1.50;;;;;;;;;;4982423;28;92174;-80
2024/01/12 05:23:32;;;;;;;5.47;1.40;;;;;;;;;;4985328;28;93134;-79
2024/01/12 05:25:58;;;;;;;5.30;1.42;;;;;;;;;;4980567;28;92414;-80
2024/01/12 05:28:25;;;;;;;6.57;1.58;;;;;;;;;;4981810;28;93176;-79
2024/01/12 05:30:52;;;;;;;5.82;1.58;;;;;;;;;;4980965;28;94271;-79
2024/01/12 05:33:18;;;;;;;4.90;1.50;;;;;;;;;;4982474;28;92160;-79
2024/01/12 05:35:45;;;;;;;6.35;1.60;;;;;;;;;;4969994;28;92960;-80
2024/01/12 05:38:12;;;;;;;6.97;1.60;;;;;;;;;;4963631;28;95008;-80
2024/01/12 05:40:38;;;;;;;7.55;1.60;;;;;;;;;;4981657;28;92575;-80
2024/01/12 05:43:05;;;;;;;6.20;1.58;;;;;;;;;;4983963;28;92502;-80
2024/01/12 05:45:32;;;;;;;7.40;1.60;;;;;;;;;;4981924;28;92254;-80
2024/01/12 05:47:58;;;;;;;5.93;1.50;;;;;;;;;;4980155;28;92458;-80
2024/01/12 05:50:25;;;;;;;6.85;1.50;;;;;;;;;;4981285;28;92773;-80
2024/01/12 05:52:51;;;;;;;4.82;1.38;;;;;;;;;;4981599;28;92255;-80
2024/01/12 05:55:18;;;;;;;5.20;1.38;;;;;;;;;;4981669;28;92404;-80
2024/01/12 05:57:44;;;;;;;5.93;1.50;;;;;;;;;;4964104;28;94858;-81
2024/01/12 06:00:11;;;;;;;7.30;1.63;;;;;;;;;;4982670;28;92559;-79
2024/01/12 06:02:38;;;;;;;4.32;1.50;;;;;;;;;;4978902;28;94897;-79
2024/01/12 06:05:05;;;;;;;7.60;1.70;;;;;;;;;;4983335;28;94916;-79
2024/01/12 06:07:31;;;;;;;5.00;1.50;;;;;;;;;;4980432;28;93134;-79
2024/01/12 06:09:58;;;;;;;4.95;1.60;;;;;;;;;;4980293;28;95334;-79
2024/01/12 06:12:25;;;;;;;6.07;1.45;;;;;;;;;;4995177;28;92811;-79
2024/01/12 06:14:52;;;;;;;6.07;1.52;;;;;;;;;;5000676;28;93372;-81
2024/01/12 06:17:19;;;;;;;11.00;1.80;;;;;;;;;;5002230;28;93350;-80
2024/01/12 06:19:46;;;;;;;8.90;1.92;;;;;;;;;;5005077;28;91477;-81
2024/01/12 06:22:13;;;;;;;6.55;1.50;;;;;;;;;;4993769;27;92341;-80
2024/01/12 06:24:39;;;;;;;7.75;2.00;;;;;;;;;;4983147;28;92691;-80
2024/01/12 06:27:06;;;;;;;7.85;1.67;;;;;;;;;;4987473;28;94468;-81
2024/01/12 06:29:34;;;;;;;7.15;1.77;;;;;;;;;;4984151;28;93190;-80
2024/01/12 06:32:03;;;;;;;8.70;1.63;;;;;;;;;;4985606;28;92028;-79
2024/01/12 06:34:29;;;;;;;5.03;1.73;;;;;;;;;;4982980;28;94783;-80
2024/01/12 06:36:59;;;;;;;7.30;1.75;;;;;;;;;;4983560;28;92481;-80
2024/01/12 06:39:25;;;;;;;6.32;1.50;;;;;;;;;;4984589;28;92132;-80
2024/01/12 06:41:52;;;;;;;4.57;1.27;;;;;;;;;;4984635;28;92282;-81
2024/01/12 06:44:19;;;;;;;5.75;1.60;;;;;;;;;;4983842;28;92838;-81
2024/01/12 06:46:46;;;;;;;6.53;1.63;;;;;;;;;;4984455;28;92182;-80
2024/01/12 06:49:12;;;;;;;5.75;1.63;;;;;;;;;;4986118;28;92154;-81
2024/01/12 06:51:39;;;;;;;4.97;1.50;;;;;;;;;;4983287;28;95021;-81
2024/01/12 06:54:05;;;;;;;5.13;1.58;;;;;;;;;;4984894;28;94978;-81
2024/01/12 06:56:37;;;;;;;5.65;1.58;;;;;;;;;;4983075;28;92689;-82
2024/01/12 06:59:04;;;;;;;4.88;1.40;;;;;;;;;;4983417;28;92208;-79
2024/01/12 07:01:31;;;;;;;5.80;1.50;;;;;;;;;;4984226;28;92601;-80
2024/01/12 07:03:58;;;;;;;5.53;1.85;;;;;;;;;;4983003;28;95324;-81
2024/01/12 07:06:24;;;;;;;8.75;2.60;;;;;;;;;;4984092;28;92221;-80
2024/01/12 07:08:51;;;;;;;7.10;2.42;;;;;;;;;;4985205;28;92737;-80
2024/01/12 07:11:17;;;;;;;8.82;2.53;;;;;;;;;;4991093;28;96092;-81
2024/01/12 07:13:44;;;;;;;8.27;2.47;;;;;;;;;;5004695;27;92101;-80
2024/01/12 07:16:11;;;;;;;10.13;2.60;;;;;;;;;;5002684;27;94682;-80
2024/01/12 07:18:37;;;;;;;7.13;2.38;;;;;;;;;;4971631;28;92751;-80
2024/01/12 07:21:04;;;;;;;10.93;2.33;;;;;;;;;;4982817;28;92400;-81
2024/01/12 07:23:31;;;;;;;9.85;2.83;;;;;;;;;;4982277;28;93509;-79
2024/01/12 07:26:01;;;;;;;8.20;2.78;;;;;;;;;;4982452;28;92684;-80
2024/01/12 07:28:27;;;;;;;9.43;2.80;;;;;;;;;;4980113;28;95363;-79
2024/01/12 07:30:54;;;;;;;8.70;2.60;;;;;;;;;;4983297;28;93564;-79
2024/01/12 07:33:21;;;;;;;7.97;2.72;;;;;;;;;;4986385;28;96310;-80
2024/01/12 07:35:48;;;;;;;8.85;2.80;;;;;;;;;;4971328;28;92834;-80
2024/01/12 07:38:15;;;;;;;8.95;2.58;;;;;;;;;;4969834;28;92289;-80
2024/01/12 07:40:41;;;;;;;9.32;2.90;;;;;;;;;;4980443;28;94837;-79
2024/01/12 07:43:08;;;;;;;9.07;2.83;;;;;;;;;;4982817;28;92823;-79
2024/01/12 07:45:34;;;;;;;10.85;2.88;;;;;;;;;;4984016;28;92389;-80
2024/01/12 07:48:01;;;;;;;6.53;2.42;;;;;;;;;;4983555;28;93059;-80
2024/01/12 07:50:28;;;;;;;8.23;2.92;;;;;;;;;;4982504;28;92567;-79
2024/01/12 07:52:54;;;;;;;8.73;3.13;;;;;;;;;;4985518;28;92209;-80
2024/01/12 07:55:21;;;;;;;9.52;3.08;;;;;;;;;;4984040;28;92709;-79
2024/01/12 07:57:47;;;;;;;8.00;2.88;;;;;;;;;;4984515;28;91733;-80
2024/01/12 08:00:14;;;;;;;9.43;3.10;;;;;;;;;;4982934;28;92930;-78
2024/01/12 08:02:41;;;;;;;8.63;2.72;;;;;;;;;;4983216;28;92762;-79
2024/01/12 08:05:08;;;;;;;8.45;2.75;;;;;;;;;;4981175;28;94864;-79
2024/01/12 08:07:35;;;;;;;7.95;2.58;;;;;;;;;;4982635;28;94949;-80
2024/01/12 08:10:02;;;;;;;8.68;2.78;;;;;;;;;;4983769;28;93059;-80
2024/01/12 08:12:29;;;;;;;11.68;2.95;;;;;;;;;;4998702;27;92021;-79
2024/01/12 08:14:56;;;;;;;10.25;3.22;;;;;;;;;;4993017;28;92460;-80
2024/01/12 08:17:22;;;;;;;7.32;2.65;;;;;;;;;;4983184;28;92185;-79
2024/01/12 08:19:49;;;;;;;7.47;2.42;;;;;;;;;;4961635;28;94570;-79
2024/01/12 08:22:15;;;;;;;10.20;2.85;;;;;;;;;;4981968;28;92420;-79
2024/01/12 08:24:42;;;;;;;8.05;2.50;;;;;;;;;;4980160;28;92310;-78
2024/01/12 08:27:08;;;;;;;10.57;2.80;;;;;;;;;;4983670;28;92744;-77
2024/01/12 08:29:35;;;;;;;10.52;3.00;;;;;;;;;;4964303;28;97605;-78
2024/01/12 08:32:02;;;;;;;11.43;3.10;;;;;;;;;;4965604;28;92664;-82
2024/01/12 08:34:29;;;;;;;12.68;3.20;;;;;;;;;;4962374;28;94595;-79
2024/01/12 08:36:55;;;;;;;11.55;3.10;;;;;;;;;;4979432;28;92240;-81
2024/01/12 08:39:22;;;;;;;13.73;3.10;;;;;;;;;;4982801;28;92883;-79
2024/01/12 08:41:48;;;;;;;10.57;3.63;;;;;;;;;;4982915;28;92328;-79
2024/01/12 08:44:15;;;;;;;13.40;3.60;;;;;;;;;;4982334;28;91970;-80
2024/01/12 08:46:42;;;;;;;9.23;3.28;;;;;;;;;;4980444;28;92642;-78
2024/01/12 08:49:11;;;;;;;10.05;3.13;;;;;;;;;;4983313;28;93196;-80
2024/01/12 08:51:37;;;;;;;;;;;;;;;;;;4983080;28;92042;-80
2024/01/12 08:54:04;;;;;;;7.93;3.38;;;;;;;;;;4981845;28;99046;-80
2024/01/12 08:56:31;;;;;;;8.93;3.55;;;;;;;;;;4981106;28;93377;-80
2024/01/12 08:58:57;;;;;;;9.93;3.63;;;;;;;;;;4983698;28;92156;-80
2024/01/12 09:01:24;;;;;;;10.18;3.75;;;;;;;;;;4982184;28;92804;-79
2024/01/12 09:03:51;;;;;;;8.82;3.42;;;;;;;;;;4981866;28;93652;-80
2024/01/12 09:06:23;;;;;;;9.57;3.65;;;;;;;;;;4964184;28;94961;-80
2024/01/12 09:08:50;;;;;;;8.60;3.55;;;;;;;;;;4980558;28;92787;-79
2024/01/12 09:11:17;;;;;;;8.57;3.42;;;;;;;;;;4985006;28;91667;-78
2024/01/12 09:13:44;;;;;;;8.15;3.30;;;;;;;;;;5000325;28;92280;-80
2024/01/12 09:16:11;;;;;;;8.70;3.38;;;;;;;;;;5001652;28;93111;-80
2024/01/12 09:18:37;;;;;;;7.57;3.13;;;;;;;;;;4978025;28;94582;-79
2024/01/12 09:21:04;;;;;;;8.10;3.00;;;;;;;;;;4983485;28;94999;-80
2024/01/12 09:23:31;;;;;;;;;;;;;;;;;;4981114;28;92114;-81
2024/01/12 09:25:58;;;;;;;8.10;3.17;;;;;;;;;;4982756;28;93775;-80
2024/01/12 09:28:24;;;;;;;8.57;3.00;;;;;;;;;;4963842;28;95189;-80
2024/01/12 09:30:51;;;;;;;7.90;2.92;;;;;;;;;;4982634;28;92312;-82
2024/01/12 09:33:18;;;;;;;8.73;3.20;;;;;;;;;;4980917;28;96708;-83
2024/01/12 09:35:44;;;;;;;7.47;2.83;;;;;;;;;;4968965;28;95104;-81
2024/01/12 09:38:11;;;;;;;8.63;2.95;;;;;;;;;;4965883;28;92156;-81
2024/01/12 09:40:38;;;;;;;7.72;2.80;;;;;;;;;;4984525;28;93521;-83
2024/01/12 09:43:08;;;;;;;13.50;2.90;;;;;;;;;;4979320;28;94504;-81
2024/01/12 09:45:36;;;;;;;7.20;2.88;;;;;;;;;;4980505;28;94882;-81
2024/01/12 09:48:03;;;;;;;7.05;2.53;;;;;;;;;;4978679;28;94413;-84
2024/01/12 09:50:29;;;;;;;9.10;2.88;;;;;;;;;;4978690;28;92648;-83
2024/01/12 09:52:56;;;;;;;8.55;2.72;;;;;;;;;;4978806;28;95055;-81
2024/01/12 09:55:23;;;;;;;9.77;2.78;;;;;;;;;;4979091;28;95727;-82
2024/01/12 09:57:49;;;;;;;7.68;2.70;;;;;;;;;;4980201;28;92484;-84
2024/01/12 10:00:17;;;;;;;8.50;2.80;;;;;;;;;;4981314;28;95201;-83
2024/01/12 10:02:44;;;;;;;8.07;2.55;;;;;;;;;;4983728;28;97648;-81
2024/01/12 10:05:11;;;;;;;10.70;3.00;;;;;;;;;;4965875;28;94650;-84
2024/01/12 10:07:38;;;;;;;8.70;2.58;;;;;;;;;;4983043;28;95569;-83
2024/01/12 10:10:05;;;;;;;7.97;2.25;;;;;;;;;;4983644;28;92581;-84
2024/01/12 10:12:32;;;;;;;;;;;;;;;;;;4978833;27;94786;-83
2024/01/12 10:15:02;;;;;;;6.88;2.40;;;;;;;;;;4980769;28;107004;-83
2024/01/12 10:17:30;;;;;;;6.93;2.20;;;;;;;;;;4981359;28;92564;-83
2024/01/12 10:19:57;;;;;;;8.13;2.40;;;;;;;;;;4980299;28;92742;-79
2024/01/12 10:22:23;;;;;;;7.78;2.40;;;;;;;;;;4977328;28;94903;-80
2024/01/12 10:25:00;;;;;;;7.30;2.25;;;;;;;;;;4984075;28;91812;-80
2024/01/12 10:27:27;;;;;;;7.45;2.17;;;;;;;;;;4978707;28;95202;-80
2024/01/12 10:29:53;;;;;;;8.00;2.20;;;;;;;;;;4977746;28;92355;-80
2024/01/12 10:32:20;;;;;;;6.75;2.10;;;;;;;;;;4941343;28;94793;-80
2024/01/12 10:34:47;;;;;;;6.10;2.20;;;;;;;;;;4964060;28;92633;-81
2024/01/12 10:37:15;;;;;;;8.20;2.05;;;;;;;;;;4962893;28;92200;-80
2024/01/12 10:39:44;;;;;;;6.07;1.73;;;;;;;;;;4980467;28;92960;-80
2024/01/12 10:42:11;;;;;;;6.15;2.08;;;;;;;;;;4978816;28;95490;-81
2024/01/12 10:44:41;;;;;;;5.53;1.83;;;;;;;;;;4979007;28;96477;-82
2024/01/12 10:47:20;;;;;;;5.80;1.88;;;;;;;;;;4982050;28;94918;-82
2024/01/12 10:49:51;;;;;;;6.50;1.80;;;;;;;;;;4980462;28;91779;-81
2024/01/12 10:52:21;;;;;;;5.97;2.08;;;;;;;;;;4978960;28;92553;-79
2024/01/12 10:55:07;;;;;;;6.88;1.70;;;;;;;;;;4977754;28;99701;-80
2024/01/12 10:57:33;;;;;;;6.28;1.90;;;;;;;;;;4949698;28;94788;-81
2024/01/12 11:00:00;;;;;;;5.93;1.90;;;;;;;;;;4962173;28;97812;-80
2024/01/12 11:02:27;;;;;;;;;;;;;;;;;;4978189;28;95118;-80
2024/01/12 11:04:54;;;;;;;7.60;1.60;;;;;;;;;;4983635;28;93957;-80
2024/01/12 11:07:21;;;;;;;4.10;1.60;;;;;;;;;;4965838;28;94784;-81
2024/01/12 11:09:49;;;;;;;5.43;1.90;;;;;;;;;;4986090;28;92596;-81
2024/01/12 11:12:19;;;;;;;8.32;2.10;;;;;;;;;;4981879;28;95014;-82
2024/01/12 11:14:46;;;;;;;6.50;1.90;;;;;;;;;;4965270;28;98353;-80
2024/01/12 11:17:12;;;;;;;5.85;1.65;;;;;;;;;;4965403;28;92185;-81
2024/01/12 11:19:39;;;;;;;7.28;2.00;;;;;;;;;;4983429;28;92433;-81
2024/01/12 11:22:06;;;;;;;4.13;1.70;;;;;;;;;;4980302;28;97247;-81
2024/01/12 11:24:36;;;;;;;7.45;1.90;;;;;;;;;;4964698;28;92187;-80
2024/01/12 11:27:04;;;;;;;8.02;1.80;;;;;;;;;;4983425;28;92828;-80
2024/01/12 11:29:34;;;;;;;6.65;1.70;;;;;;;;;;4981309;28;94976;-80
2024/01/12 11:32:02;;;;;;;5.10;1.52;;;;;;;;;;4992276;28;92392;-79
2024/01/12 11:34:37;;;;;;;4.90;1.45;;;;;;;;;;4983138;28;93125;-79
2024/01/12 11:37:07;;;;;;;6.25;1.70;;;;;;;;;;4970048;28;92175;-80
2024/01/12 11:39:36;;;;;;;6.30;1.60;;;;;;;;;;4980028;28;92362;-80
2024/01/12 11:42:05;;;;;;;6.35;1.77;;;;;;;;;;4981722;28;94282;-80
2024/01/12 11:44:33;;;;;;;6.80;1.40;;;;;;;;;;4981250;28;92237;-79
2024/01/12 11:47:00;;;;;;;5.10;1.55;;;;;;;;;;4978929;28;95394;-79
2024/01/12 11:49:26;;;;;;;7.00;1.45;;;;;;;;;;4982489;28;92790;-80
2024/01/12 11:52:06;;;;;;;4.65;1.40;;;;;;;;;;4984259;28;92668;-80
2024/01/12 11:54:32;;;;;;;;;;;;;;;;;;4964210;28;93435;-80
2024/01/12 11:57:01;;;;;;;7.15;1.45;;;;;;;;;;4983773;28;92121;-80
2024/01/12 11:59:28;;;;;;;4.88;1.50;;;;;;;;;;4964582;28;94748;-81
2024/01/12 12:01:55;;;;;;;5.40;1.42;;;;;;;;;;4980884;28;93231;-81
2024/01/12 12:04:21;;;;;;;4.30;1.52;;;;;;;;;;4982247;28;91333;-80
2024/01/12 12:06:48;;;;;;;4.43;1.38;;;;;;;;;;4982052;28;92541;-80
2024/01/12 12:09:15;;;;;;;4.85;1.40;;;;;;;;;;4982511;28;92716;-80
2024/01/12 12:11:42;;;;;;;5.05;1.40;;;;;;;;;;4989386;28;95038;-80
2024/01/12 12:14:08;;;;;;;4.20;1.50;;;;;;;;;;4989732;27;95031;-80
2024/01/12 12:16:35;;;;;;;4.43;1.48;;;;;;;;;;4979783;28;92673;-82
2024/01/12 12:19:03;;;;;;;4.72;1.58;;;;;;;;;;4979766;28;95225;-81
2024/01/12 12:21:30;;;;;;;4.47;1.30;;;;;;;;;;4981419;28;92777;-81
2024/01/12 12:23:58;;;;;;;4.32;1.42;;;;;;;;;;4979802;28;92267;-79
2024/01/12 12:26:24;;;;;;;5.05;1.50;;;;;;;;;;4981068;28;92483;-82
2024/01/12 12:28:54;;;;;;;3.90;1.42;;;;;;;;;;4980873;28;92373;-83
2024/01/12 12:31:20;;;;;;;4.18;1.17;;;;;;;;;;4981741;28;92046;-84
2024/01/12 12:33:47;;;;;;;4.68;1.30;;;;;;;;;;4980586;28;94957;-84
2024/01/12 12:36:15;;;;;;;4.30;1.30;;;;;;;;;;4967136;28;95905;-83
2024/01/12 12:38:42;;;;;;;3.53;1.30;;;;;;;;;;4968515;28;97294;-83
2024/01/12 12:41:09;;;;;;;;;;;;;;;;;;4980887;28;95492;-83
2024/01/12 12:43:37;;;;;;;5.07;1.33;;;;;;;;;;4982800;28;94705;-83
2024/01/12 12:46:04;;;;;;;5.25;1.50;;;;;;;;;;4981948;28;92642;-84
2024/01/12 12:48:31;;;;;;;8.15;1.23;;;;;;;;;;4979735;28;93197;-79
2024/01/12 12:50:58;;;;;;;5.18;1.40;;;;;;;;;;4980621;28;92063;-78
2024/01/12 12:53:25;;;;;;;5.60;1.40;;;;;;;;;;4980786;28;92967;-80
2024/01/12 12:55:52;;;;;;;5.85;1.52;;;;;;;;;;4963710;28;94460;-83
2024/01/12 12:58:19;;;;;;;6.78;1.60;;;;;;;;;;4984826;28;92891;-80
2024/01/12 13:00:46;;;;;;;;;;;;;;;;;;4980223;28;96782;-81
2024/01/12 13:03:12;;;;;;;8.60;1.73;;;;;;;;;;4979832;28;108827;-78
2024/01/12 13:05:39;;;;;;;4.88;1.67;;;;;;;;;;4981219;28;92333;-78
2024/01/12 13:08:09;;;;;;;4.07;1.38;;;;;;;;;;4980894;28;92701;-79
2024/01/12 13:10:35;;;;;;;5.85;1.58;;;;;;;;;;4979393;28;92349;-79
2024/01/12 13:13:05;;;;;;;6.40;1.50;;;;;;;;;;4993661;28;92424;-80
2024/01/12 13:15:31;;;;;;;7.20;1.70;;;;;;;;;;4978030;28;95672;-80
2024/01/12 13:17:58;;;;;;;6.78;1.55;;;;;;;;;;4979429;28;91716;-79
2024/01/12 13:20:25;;;;;;;6.60;1.50;;;;;;;;;;4980799;28;94228;-78
2024/01/12 13:22:52;;;;;;;4.88;1.20;;;;;;;;;;4979350;28;92333;-78
2024/01/12 13:25:19;;;;;;;5.05;1.33;;;;;;;;;;4976884;28;94988;-78
2024/01/12 13:27:47;;;;;;;3.35;1.20;;;;;;;;;;4976609;28;92100;-78
2024/01/12 13:30:14;;;;;;;5.55;1.40;;;;;;;;;;4979282;28;92048;-78
2024/01/12 13:32:41;;;;;;;9.48;1.45;;;;;;;;;;4978592;28;92436;-79
2024/01/12 13:35:08;;;;;;;4.35;1.20;;;;;;;;;;4971811;28;99508;-80
2024/01/12 13:37:35;;;;;;;4.60;1.30;;;;;;;;;;4966522;28;92217;-80
2024/01/12 13:40:01;;;;;;;4.43;1.20;;;;;;;;;;4979204;28;92667;-79
2024/01/12 13:42:28;;;;;;;6.28;1.20;;;;;;;;;;4982068;28;92524;-80
2024/01/12 13:44:54;;;;;;;5.47;1.23;;;;;;;;;;4980615;28;92281;-79
2024/01/12 13:47:21;;;;;;;3.17;1.13;;;;;;;;;;4978696;28;92496;-79
2024/01/12 13:49:48;;;;;;;5.45;1.13;;;;;;;;;;4961302;28;101408;-78
2024/01/12 13:52:15;;;;;;;;;;;;;;;;;;4962819;28;96899;-79
2024/01/12 13:54:42;;;;;;;4.50;1.20;;;;;;;;;;4979591;28;103040;-79
2024/01/12 13:57:08;;;;;;;6.35;1.23;;;;;;;;;;4979591;28;92534;-78
2024/01/12 13:59:36;;;;;;;3.50;1.15;;;;;;;;;;4980197;28;93176;-80
2024/01/12 14:02:03;;;;;;;4.57;1.25;;;;;;;;;;4981984;28;95112;-79
2024/01/12 14:04:31;;;;;;;4.85;1.23;;;;;;;;;;4962472;28;94485;-78
2024/01/12 14:06:57;;;;;;;4.32;1.10;;;;;;;;;;4978746;28;94367;-78
2024/01/12 14:09:25;;;;;;;2.53;1.20;;;;;;;;;;4979147;28;92772;-80
2024/01/12 14:11:52;;;;;;;3.60;1.00;;;;;;;;;;4981261;28;92176;-78
2024/01/12 14:14:19;;;;;;;4.32;1.00;;;;;;;;;;4976715;28;95435;-78
2024/01/12 14:16:46;;;;;;;4.63;1.20;;;;;;;;;;4980341;28;92086;-79
2024/01/12 14:19:14;;;;;;;5.03;1.10;;;;;;;;;;4980254;28;92713;-79
2024/01/12 14:21:42;;;;;;;4.20;1.20;;;;;;;;;;4979882;28;92738;-79
2024/01/12 14:24:08;;;;;;;3.88;1.00;;;;;;;;;;4965778;28;92444;-78
2024/01/12 14:26:38;;;;;;;3.90;0.98;;;;;;;;;;4979763;28;92710;-79
2024/01/12 14:29:05;;;;;;;4.43;1.08;;;;;;;;;;4979055;28;92121;-78
2024/01/12 14:31:32;;;;;;;2.53;0.90;;;;;;;;;;4979379;28;91837;-79
2024/01/12 14:33:58;;;;;;;4.47;1.20;;;;;;;;;;4978268;28;94643;-78
2024/01/12 14:36:26;;;;;;;4.28;1.00;;;;;;;;;;4971143;28;92683;-80
2024/01/12 14:38:53;;;;;;;3.05;0.90;;;;;;;;;;4978941;28;94741;-78
2024/01/12 14:41:20;;;;;;;3.70;1.00;;;;;;;;;;4983075;28;92788;-78